Time;durP1;ratioP1;P1;durP2;ratioP2;P2;SDS_P1;SDS_P2;PMS_P1;PMS_P2;Temp;Humidity;BMP_temperature;BMP_pressure;BME280_temperature;BME280_humidity;BME280_pressure;Samples;Min_cycle;Max_cycle;Signal;HPM_P1;HPM_P2
2021/06/19 00:00:33;;;;;;;9.88;5.85;;;25.40;79.50;;;;;;5134784;27;20055;-48
2021/06/19 00:03:02;;;;;;;8.15;5.80;;;25.40;79.90;;;;;;5109207;27;20100;-48
2021/06/19 00:05:30;;;;;;;9.77;6.00;;;25.30;79.50;;;;;;5134705;27;20443;-48
2021/06/19 00:07:58;;;;;;;13.70;10.02;;;25.30;79.20;;;;;;5125597;27;20541;-48
2021/06/19 00:10:26;;;;;;;18.17;11.80;;;25.30;78.90;;;;;;5134783;27;20051;-48
2021/06/19 00:12:54;;;;;;;21.73;14.07;;;25.30;78.20;;;;;;5124466;27;20443;-47
2021/06/19 00:15:24;;;;;;;23.38;15.60;;;25.30;77.70;;;;;;5134521;27;20040;-49
2021/06/19 00:17:53;;;;;;;21.35;13.32;;;25.30;77.20;;;;;;5107319;27;20055;-47
2021/06/19 00:20:24;;;;;;;17.20;12.45;;;25.30;76.90;;;;;;5117619;27;20069;-48
2021/06/19 00:22:52;;;;;;;17.60;12.23;;;25.30;76.90;;;;;;5120695;27;20047;-48
2021/06/19 00:25:22;;;;;;;19.15;12.85;;;25.30;77.00;;;;;;5125253;27;20409;-48
2021/06/19 00:27:50;;;;;;;16.60;11.00;;;25.30;77.00;;;;;;5124604;27;20497;-48
2021/06/19 00:30:19;;;;;;;16.00;11.98;;;25.20;76.70;;;;;;5136039;27;20051;-49
2021/06/19 00:32:47;;;;;;;20.55;12.80;;;25.20;76.70;;;;;;5139297;27;20067;-47
2021/06/19 00:35:15;;;;;;;17.48;11.95;;;25.20;76.70;;;;;;5095221;28;20055;-48
2021/06/19 00:37:44;;;;;;;16.08;10.75;;;25.10;76.60;;;;;;5125146;27;20111;-49
2021/06/19 00:40:12;;;;;;;14.88;9.68;;;25.10;76.10;;;;;;5118792;27;20054;-52
2021/06/19 00:42:52;;;;;;;13.82;8.25;;;25.10;75.70;;;;;;5123075;27;20043;-48
2021/06/19 00:45:20;;;;;;;14.30;9.05;;;25.10;75.30;;;;;;5134109;27;20043;-48
2021/06/19 00:47:48;;;;;;;9.82;6.50;;;25.10;74.80;;;;;;5123704;27;20051;-49
2021/06/19 00:50:16;;;;;;;10.77;7.47;;;25.00;74.40;;;;;;5134872;27;20051;-48
2021/06/19 00:52:44;;;;;;;8.90;5.43;;;25.00;74.20;;;;;;5123919;27;20050;-48
2021/06/19 00:55:13;;;;;;;7.53;5.10;;;25.00;74.10;;;;;;5135005;27;20489;-52
2021/06/19 00:57:41;;;;;;;6.45;4.55;;;25.00;73.90;;;;;;5122505;27;20050;-49
2021/06/19 01:00:10;;;;;;;8.57;6.22;;;25.00;74.00;;;;;;5118123;27;20043;-48
2021/06/19 01:02:39;;;;;;;6.82;5.15;;;25.00;74.10;;;;;;5123822;27;20050;-48
2021/06/19 01:05:08;;;;;;;5.75;4.40;;;25.00;73.90;;;;;;5133524;27;20044;-48
2021/06/19 01:07:37;;;;;;;5.88;4.35;;;25.10;73.90;;;;;;5125897;27;20482;-48
2021/06/19 01:10:06;;;;;;;6.80;3.65;;;25.00;73.70;;;;;;5098005;28;20048;-47
2021/06/19 01:12:34;;;;;;;5.07;3.42;;;25.00;73.50;;;;;;5122819;27;20511;-48
2021/06/19 01:15:03;;;;;;;4.65;3.10;;;25.10;73.80;;;;;;5100910;27;20043;-51
2021/06/19 01:17:31;;;;;;;3.75;3.25;;;25.10;73.10;;;;;;5121825;27;20046;-48
2021/06/19 01:20:08;;;;;;;3.55;2.45;;;25.10;73.10;;;;;;5135048;27;20058;-47
2021/06/19 01:22:38;;;;;;;5.25;2.90;;;25.10;72.90;;;;;;5121976;27;20083;-48
2021/06/19 01:25:08;;;;;;;3.28;2.38;;;25.10;72.50;;;;;;5117683;27;20050;-49
2021/06/19 01:27:37;;;;;;;3.90;3.00;;;25.00;72.10;;;;;;5103623;27;20399;-47
2021/06/19 01:30:08;;;;;;;3.33;2.30;;;25.00;71.80;;;;;;5134905;27;20047;-49
2021/06/19 01:32:39;;;;;;;3.30;2.85;;;25.00;71.60;;;;;;5122954;27;20112;-48
2021/06/19 01:35:08;;;;;;;5.10;2.47;;;25.00;71.70;;;;;;5134547;27;20142;-48
2021/06/19 01:37:39;;;;;;;8.88;2.78;;;25.00;72.10;;;;;;5104739;27;20523;-48
2021/06/19 01:40:15;;;;;;;3.92;2.70;;;24.90;72.40;;;;;;5135598;27;20059;-48
2021/06/19 01:42:45;;;;;;;6.28;3.30;;;24.90;72.90;;;;;;5107974;28;20044;-48
2021/06/19 01:45:20;;;;;;;4.65;2.15;;;24.90;73.10;;;;;;5096597;28;20060;-48
2021/06/19 01:47:48;;;;;;;3.53;2.70;;;24.90;73.50;;;;;;5124213;27;20051;-48
2021/06/19 01:50:22;;;;;;;5.25;3.08;;;24.90;73.60;;;;;;5079702;28;20047;-49
2021/06/19 01:52:51;;;;;;;6.53;3.38;;;24.80;73.60;;;;;;5104240;28;20097;-48
2021/06/19 01:55:20;;;;;;;4.05;3.10;;;24.80;74.00;;;;;;5094059;28;20570;-48
2021/06/19 01:57:55;;;;;;;5.97;4.35;;;24.80;74.60;;;;;;5124139;27;20043;-48
2021/06/19 02:00:30;;;;;;;10.27;6.60;;;24.70;75.20;;;;;;5080189;27;20054;-48
2021/06/19 02:02:58;;;;;;;12.60;8.60;;;24.70;76.10;;;;;;5121749;27;20129;-48
2021/06/19 02:05:27;;;;;;;13.77;10.70;;;24.60;76.80;;;;;;5115429;27;20047;-48
2021/06/19 02:07:57;;;;;;;20.45;12.50;;;24.60;77.90;;;;;;5121013;27;20069;-48
2021/06/19 02:10:28;;;;;;;18.45;14.20;;;24.60;79.00;;;;;;5132662;27;20047;-47
2021/06/19 02:12:58;;;;;;;19.45;13.00;;;24.50;79.90;;;;;;5121611;27;20516;-48
2021/06/19 02:15:26;;;;;;;16.80;12.93;;;24.40;80.40;;;;;;5132114;27;20455;-48
2021/06/19 02:17:55;;;;;;;18.45;13.88;;;24.40;80.60;;;;;;5121832;27;20503;-48
2021/06/19 02:20:25;;;;;;;18.05;13.18;;;24.30;80.90;;;;;;5132568;27;20130;-49
2021/06/19 02:22:54;;;;;;;16.27;11.73;;;24.30;81.20;;;;;;5097431;28;20047;-52
2021/06/19 02:25:23;;;;;;;16.98;12.48;;;24.20;81.40;;;;;;5096185;27;20071;-48
2021/06/19 02:27:53;;;;;;;13.85;10.25;;;24.20;81.50;;;;;;5088333;27;20046;-49
2021/06/19 02:30:24;;;;;;;17.60;10.77;;;24.20;81.50;;;;;;5133620;27;20059;-49
2021/06/19 02:32:53;;;;;;;13.60;10.07;;;24.10;81.40;;;;;;5120657;27;20059;-49
2021/06/19 02:35:23;;;;;;;11.60;9.60;;;24.10;81.30;;;;;;5114921;27;20438;-48
2021/06/19 02:37:51;;;;;;;14.95;9.48;;;24.00;81.10;;;;;;5123069;27;20043;-48
2021/06/19 02:40:19;;;;;;;12.73;8.90;;;24.00;81.20;;;;;;5115227;27;20115;-49
2021/06/19 02:42:47;;;;;;;12.48;8.27;;;24.00;80.70;;;;;;5103017;28;20131;-50
2021/06/19 02:45:16;;;;;;;8.95;7.85;;;23.90;80.60;;;;;;5092602;28;20052;-47
2021/06/19 02:47:49;;;;;;;11.80;7.85;;;23.90;80.60;;;;;;5121403;27;20047;-48
2021/06/19 02:50:20;;;;;;;12.30;8.40;;;23.90;80.60;;;;;;5132271;27;20046;-48
2021/06/19 02:52:48;;;;;;;9.15;6.80;;;23.90;80.70;;;;;;5124362;27;20055;-49
2021/06/19 02:55:27;;;;;;;10.60;8.15;;;23.90;80.70;;;;;;5111706;28;20128;-49
2021/06/19 02:57:55;;;;;;;10.95;7.20;;;23.90;80.90;;;;;;5121582;27;20047;-48
2021/06/19 03:00:24;;;;;;;9.30;6.22;;;23.90;81.00;;;;;;5131773;27;20050;-48
2021/06/19 03:02:52;;;;;;;6.85;5.85;;;23.80;80.90;;;;;;5121465;27;20047;-49
2021/06/19 03:05:23;;;;;;;8.57;6.38;;;23.80;80.90;;;;;;5131471;27;20127;-49
2021/06/19 03:07:53;;;;;;;9.82;5.55;;;23.90;80.70;;;;;;5104806;28;20047;-50
2021/06/19 03:10:24;;;;;;;9.15;4.97;;;23.80;80.40;;;;;;5114692;28;20555;-48
2021/06/19 03:12:52;;;;;;;8.02;4.45;;;23.80;80.00;;;;;;5104634;28;20051;-47
2021/06/19 03:15:20;;;;;;;5.65;4.53;;;23.80;79.40;;;;;;5097549;28;20075;-48
2021/06/19 03:17:48;;;;;;;6.80;4.13;;;23.90;78.80;;;;;;5104144;28;20050;-51
2021/06/19 03:20:18;;;;;;;6.97;5.10;;;23.90;78.20;;;;;;5132302;28;20055;-49
2021/06/19 03:22:50;;;;;;;7.45;4.93;;;23.90;77.80;;;;;;5123887;28;20044;-48
2021/06/19 03:25:42;;;;;;;7.13;4.25;;;24.00;77.00;;;;;;5078447;28;20482;-49
2021/06/19 03:28:12;;;;;;;7.65;4.68;;;24.00;76.60;;;;;;5118133;28;20047;-48
2021/06/19 03:30:44;;;;;;;8.90;4.88;;;24.10;76.30;;;;;;5096661;28;20226;-48
2021/06/19 03:33:13;;;;;;;7.20;4.97;;;24.20;76.20;;;;;;5117052;28;20165;-48
2021/06/19 03:35:42;;;;;;;8.32;4.90;;;24.20;76.00;;;;;;5114545;28;20050;-49
2021/06/19 03:38:10;;;;;;;7.28;4.40;;;24.20;75.80;;;;;;5113530;28;20051;-48
2021/06/19 03:40:38;;;;;;;9.27;5.43;;;24.20;75.70;;;;;;5063005;28;20051;-48
2021/06/19 03:43:07;;;;;;;9.43;6.53;;;24.30;75.70;;;;;;5089358;28;20050;-48
2021/06/19 03:45:35;;;;;;;7.75;5.10;;;24.30;75.50;;;;;;5113184;28;20043;-49
2021/06/19 03:48:05;;;;;;;8.45;5.43;;;24.30;75.40;;;;;;5105629;28;20051;-50
2021/06/19 03:50:33;;;;;;;10.43;6.13;;;24.30;75.20;;;;;;5113511;28;20043;-48
2021/06/19 03:53:01;;;;;;;11.88;5.95;;;24.30;75.00;;;;;;5122337;28;20055;-48
2021/06/19 03:55:29;;;;;;;8.25;5.20;;;24.40;74.90;;;;;;5113779;28;20054;-48
2021/06/19 03:57:58;;;;;;;7.35;5.13;;;24.40;74.80;;;;;;5104817;28;20143;-48
2021/06/19 04:00:28;;;;;;;6.43;4.90;;;24.50;74.50;;;;;;5131414;28;20047;-50
2021/06/19 04:02:56;;;;;;;5.43;4.78;;;24.60;74.10;;;;;;5101058;28;20090;-48
2021/06/19 04:05:24;;;;;;;7.63;4.88;;;24.70;74.00;;;;;;5113056;27;20101;-48
2021/06/19 04:07:53;;;;;;;8.43;5.55;;;24.80;73.70;;;;;;5107910;27;20050;-47
2021/06/19 04:10:22;;;;;;;6.90;5.38;;;24.90;73.50;;;;;;5135132;27;20096;-48
2021/06/19 04:12:50;;;;;;;7.05;5.50;;;25.00;73.40;;;;;;5124763;27;20051;-48
2021/06/19 04:15:18;;;;;;;7.53;5.53;;;25.10;73.10;;;;;;5100954;27;20055;-48
2021/06/19 04:17:47;;;;;;;6.55;4.93;;;25.10;72.70;;;;;;5126924;27;20039;-48
2021/06/19 04:20:16;;;;;;;7.82;5.00;;;25.20;72.70;;;;;;5098244;28;20133;-48
2021/06/19 04:22:45;;;;;;;7.15;4.13;;;25.30;72.40;;;;;;5124168;27;20051;-50
2021/06/19 04:25:14;;;;;;;6.57;5.40;;;25.40;72.30;;;;;;5118434;27;20092;-50
2021/06/19 04:27:50;;;;;;;5.75;5.13;;;25.50;72.10;;;;;;5124917;27;20397;-49
2021/06/19 04:30:20;;;;;;;8.15;4.55;;;25.60;71.90;;;;;;5134797;27;20050;-48
2021/06/19 04:32:49;;;;;;;5.60;4.55;;;25.70;71.90;;;;;;5122349;27;20155;-48
2021/06/19 04:35:18;;;;;;;6.57;4.57;;;25.80;71.80;;;;;;5084841;27;20043;-48
2021/06/19 04:37:46;;;;;;;6.03;4.60;;;25.90;72.00;;;;;;5124218;27;20127;-48
2021/06/19 04:43:26;;;;;;;5.45;4.43;;;26.20;72.40;;;;;;5113315;27;20138;-48
2021/06/19 04:45:42;;;;;;;5.32;4.38;;;26.40;73.30;;;;;;5100186;27;20066;-48
2021/06/19 04:48:10;;;;;;;6.15;4.30;;;26.60;74.30;;;;;;5122399;27;20451;-48
2021/06/19 04:50:38;;;;;;;7.68;5.28;;;26.70;74.90;;;;;;5100407;27;20044;-50
2021/06/19 04:53:07;;;;;;;5.30;4.05;;;26.80;75.70;;;;;;5120891;27;20047;-49
2021/06/19 04:55:35;;;;;;;7.57;4.13;;;26.90;76.40;;;;;;5115267;27;20061;-49
2021/06/19 04:58:03;;;;;;;5.57;4.00;;;26.90;76.70;;;;;;5119277;27;20062;-49
2021/06/19 05:00:33;;;;;;;9.38;4.07;;;27.10;77.20;;;;;;5119428;27;20044;-50
2021/06/19 05:03:01;;;;;;;6.10;4.13;;;27.20;77.40;;;;;;5098724;27;20043;-50
2021/06/19 05:05:29;;;;;;;7.25;4.07;;;27.30;77.70;;;;;;5116028;27;20051;-52
2021/06/19 05:07:57;;;;;;;6.15;4.20;;;27.40;78.10;;;;;;5115418;27;20371;-53
2021/06/19 05:10:26;;;;;;;6.97;5.05;;;27.50;78.70;;;;;;5114300;27;20092;-52
2021/06/19 05:12:54;;;;;;;6.80;4.47;;;27.50;79.00;;;;;;5096538;27;20074;-52
2021/06/19 05:15:24;;;;;;;6.30;4.72;;;27.60;79.50;;;;;;5098556;27;20044;-48
2021/06/19 05:17:54;;;;;;;6.03;4.30;;;27.70;79.50;;;;;;5120596;27;20052;-50
2021/06/19 05:20:23;;;;;;;8.48;4.53;;;27.80;79.70;;;;;;5123352;27;20054;-48
2021/06/19 05:22:50;;;;;;;10.82;5.72;;;27.90;80.00;;;;;;5123733;27;20052;-52
2021/06/19 05:25:18;;;;;;;9.35;5.68;;;28.00;79.90;;;;;;5120889;27;20401;-52
2021/06/19 05:27:46;;;;;;;9.55;5.10;;;28.00;79.90;;;;;;5121571;27;20135;-52
2021/06/19 05:30:14;;;;;;;6.32;4.15;;;28.10;79.50;;;;;;5125528;27;20043;-51
2021/06/19 05:32:43;;;;;;;6.65;4.43;;;28.20;78.90;;;;;;5104823;27;20052;-48
2021/06/19 05:35:12;;;;;;;8.48;3.90;;;28.40;78.80;;;;;;5117929;27;20485;-48
2021/06/19 05:37:39;;;;;;;5.60;4.80;;;28.50;77.90;;;;;;5125270;27;20055;-49
2021/06/19 05:40:09;;;;;;;4.32;3.40;;;28.60;77.40;;;;;;5096565;28;20455;-53
2021/06/19 05:42:36;;;;;;;5.25;3.97;;;28.70;76.60;;;;;;5119918;27;20077;-50
2021/06/19 05:45:06;;;;;;;4.75;3.80;;;28.80;76.00;;;;;;5122470;27;20059;-48
2021/06/19 05:47:33;;;;;;;5.43;4.10;;;28.90;75.40;;;;;;5121150;27;20405;-50
2021/06/19 05:50:02;;;;;;;4.57;3.65;;;29.00;74.90;;;;;;5121386;27;20051;-49
2021/06/19 05:52:29;;;;;;;6.35;3.70;;;29.00;74.70;;;;;;5104726;27;20164;-52
2021/06/19 05:54:57;;;;;;;6.70;3.80;;;29.10;74.70;;;;;;5129392;27;20085;-51
2021/06/19 05:57:25;;;;;;;4.82;3.45;;;29.30;74.40;;;;;;5108263;27;20043;-49
2021/06/19 05:59:53;;;;;;;6.97;3.33;;;29.40;73.70;;;;;;5121916;27;20052;-54
2021/06/19 06:02:21;;;;;;;4.18;3.50;;;29.50;73.10;;;;;;5102818;27;20104;-50
2021/06/19 06:04:49;;;;;;;9.82;5.25;;;29.60;72.10;;;;;;5120866;27;20040;-48
2021/06/19 06:07:16;;;;;;;5.35;4.00;;;29.80;72.00;;;;;;5122039;27;20398;-56
2021/06/19 06:09:44;;;;;;;7.72;3.35;;;29.90;72.00;;;;;;5127893;27;20051;-51
2021/06/19 06:12:12;;;;;;;6.50;3.78;;;29.90;71.20;;;;;;5112884;27;20085;-51
2021/06/19 06:14:40;;;;;;;5.22;3.55;;;30.00;70.30;;;;;;5100736;28;20069;-50
2021/06/19 06:17:07;;;;;;;5.90;3.58;;;30.10;69.80;;;;;;5117996;27;20050;-48
2021/06/19 06:19:35;;;;;;;5.15;3.65;;;30.20;69.50;;;;;;5112369;27;20535;-49
2021/06/19 06:22:04;;;;;;;4.05;3.33;;;30.30;69.10;;;;;;5118275;27;20055;-49
2021/06/19 06:24:34;;;;;;;5.70;3.58;;;30.40;68.60;;;;;;5132030;27;20054;-50
2021/06/19 06:27:02;;;;;;;5.25;3.05;;;30.40;67.90;;;;;;5124213;27;20502;-49
2021/06/19 06:29:30;;;;;;;12.93;3.83;;;30.50;67.20;;;;;;5130597;27;20553;-51
2021/06/19 06:31:58;;;;;;;7.95;4.13;;;30.50;66.60;;;;;;5123598;27;20490;-48
2021/06/19 06:34:25;;;;;;;4.80;3.53;;;30.60;66.30;;;;;;5131036;27;20497;-50
2021/06/19 06:36:54;;;;;;;7.18;3.60;;;30.70;66.20;;;;;;5124153;27;20501;-50
2021/06/19 06:39:21;;;;;;;5.63;3.10;;;30.70;65.60;;;;;;5129555;27;20047;-50
2021/06/19 06:41:49;;;;;;;5.63;3.50;;;30.80;65.60;;;;;;5124881;27;20424;-48
2021/06/19 06:44:17;;;;;;;4.55;3.25;;;30.90;65.50;;;;;;5129215;27;20053;-50
2021/06/19 06:46:45;;;;;;;5.28;3.00;;;30.90;64.60;;;;;;5088150;28;20048;-50
2021/06/19 06:49:13;;;;;;;5.85;3.22;;;30.90;64.40;;;;;;5123689;27;20043;-50
2021/06/19 06:51:41;;;;;;;6.15;3.50;;;30.90;64.70;;;;;;5125644;27;20047;-52
2021/06/19 06:54:09;;;;;;;5.45;3.45;;;31.00;64.30;;;;;;5110967;27;20048;-50
2021/06/19 06:56:37;;;;;;;6.10;3.22;;;31.00;64.00;;;;;;5109202;28;20050;-48
2021/06/19 06:59:04;;;;;;;5.72;3.63;;;31.10;63.80;;;;;;5127329;27;20126;-51
2021/06/19 07:01:32;;;;;;;5.00;2.90;;;31.20;63.80;;;;;;5127933;27;20096;-49
2021/06/19 07:04:00;;;;;;;4.30;3.10;;;31.30;63.70;;;;;;5109557;27;20055;-48
2021/06/19 07:06:28;;;;;;;5.82;3.38;;;31.40;62.70;;;;;;5127413;28;20077;-50
2021/06/19 07:08:55;;;;;;;4.22;2.70;;;31.50;62.40;;;;;;5125879;28;20115;-48
2021/06/19 07:11:23;;;;;;;3.78;2.35;;;31.50;61.80;;;;;;5127596;28;20054;-49
2021/06/19 07:13:52;;;;;;;5.43;2.97;;;31.50;61.20;;;;;;5108705;28;20043;-48
2021/06/19 07:16:21;;;;;;;7.55;2.50;;;31.50;60.90;;;;;;5128470;28;20382;-49
2021/06/19 07:18:49;;;;;;;6.65;2.97;;;31.70;61.10;;;;;;5107748;28;20051;-49
2021/06/19 07:21:17;;;;;;;4.28;2.30;;;31.70;60.90;;;;;;5128457;28;20114;-52
2021/06/19 07:23:45;;;;;;;5.40;3.05;;;31.70;60.20;;;;;;5124038;28;20047;-50
2021/06/19 07:26:12;;;;;;;6.50;3.03;;;31.70;59.50;;;;;;5129152;28;20129;-49
2021/06/19 07:28:43;;;;;;;9.43;3.55;;;31.90;59.80;;;;;;5106679;28;20116;-49
2021/06/19 07:31:13;;;;;;;7.53;3.20;;;31.90;59.80;;;;;;5112332;28;20054;-48
2021/06/19 07:33:42;;;;;;;10.02;3.13;;;32.00;59.80;;;;;;5106390;28;20083;-50
2021/06/19 07:36:10;;;;;;;6.32;2.72;;;32.10;59.60;;;;;;5128682;28;20400;-50
2021/06/19 07:38:38;;;;;;;5.45;2.90;;;32.00;59.40;;;;;;5123712;28;20050;-49
2021/06/19 07:41:06;;;;;;;4.03;2.60;;;32.10;59.00;;;;;;5132488;27;20051;-49
2021/06/19 07:43:34;;;;;;;4.32;2.50;;;32.20;58.90;;;;;;5127479;27;20402;-50
2021/06/19 07:46:02;;;;;;;3.72;2.83;;;32.20;58.90;;;;;;5114896;27;20036;-48
2021/06/19 07:48:29;;;;;;;4.65;2.30;;;32.20;58.70;;;;;;5127301;27;20047;-48
2021/06/19 07:50:57;;;;;;;5.72;2.22;;;32.30;58.00;;;;;;5133852;27;20043;-49
2021/06/19 07:53:25;;;;;;;3.78;2.22;;;32.30;57.80;;;;;;5127128;27;20517;-49
2021/06/19 07:55:52;;;;;;;4.90;2.42;;;32.30;58.10;;;;;;5133038;27;20486;-48
2021/06/19 07:58:20;;;;;;;7.82;3.15;;;32.40;58.40;;;;;;5128290;27;20408;-48
2021/06/19 08:00:48;;;;;;;3.15;2.20;;;32.40;58.70;;;;;;5132460;27;20470;-48
2021/06/19 08:03:15;;;;;;;5.55;2.55;;;32.40;59.20;;;;;;5126676;27;20043;-48
2021/06/19 08:05:43;;;;;;;4.97;2.60;;;32.50;59.60;;;;;;5133920;27;20480;-49
2021/06/19 08:08:11;;;;;;;6.05;2.75;;;32.60;59.70;;;;;;5120409;27;20079;-48
2021/06/19 08:10:38;;;;;;;6.47;2.78;;;32.60;59.40;;;;;;5116450;27;20051;-49
2021/06/19 08:13:06;;;;;;;3.45;2.40;;;32.50;59.10;;;;;;5126591;27;20402;-49
2021/06/19 08:15:35;;;;;;;3.50;2.25;;;32.50;59.10;;;;;;5133337;27;20039;-54
2021/06/19 08:18:03;;;;;;;4.57;2.75;;;32.50;59.20;;;;;;5125641;27;20055;-53
2021/06/19 08:20:31;;;;;;;5.78;2.42;;;32.50;59.20;;;;;;5134076;27;20043;-51
2021/06/19 08:23:00;;;;;;;4.60;2.35;;;32.50;59.20;;;;;;5125337;27;20047;-53
2021/06/19 08:25:28;;;;;;;5.00;2.13;;;32.50;59.50;;;;;;5134211;27;20122;-51
2021/06/19 08:27:56;;;;;;;3.33;2.35;;;32.70;59.50;;;;;;5107664;27;20481;-52
2021/06/19 08:30:24;;;;;;;4.55;2.70;;;32.60;59.40;;;;;;5117071;27;20378;-51
2021/06/19 08:32:52;;;;;;;3.85;1.80;;;32.60;59.20;;;;;;5123825;27;20139;-49
2021/06/19 08:35:19;;;;;;;3.50;2.83;;;32.60;59.00;;;;;;5135423;27;20427;-54
2021/06/19 08:37:47;;;;;;;4.45;2.47;;;32.60;59.20;;;;;;5107028;27;20065;-52
2021/06/19 08:40:15;;;;;;;3.40;2.10;;;32.70;59.20;;;;;;5117638;27;20043;-49
2021/06/19 08:42:43;;;;;;;5.82;2.50;;;32.60;59.40;;;;;;5123504;27;20051;-48
2021/06/19 08:45:11;;;;;;;4.57;2.30;;;32.50;59.10;;;;;;5135284;27;20378;-49
2021/06/19 08:47:39;;;;;;;4.55;2.80;;;32.50;59.40;;;;;;5126236;27;20063;-49
2021/06/19 08:50:10;;;;;;;3.10;2.10;;;32.40;59.40;;;;;;5097929;28;20048;-53
2021/06/19 08:52:39;;;;;;;4.72;2.13;;;32.50;59.00;;;;;;5122701;27;20102;-51
2021/06/19 08:55:10;;;;;;;3.53;2.10;;;32.60;57.80;;;;;;5118127;27;20133;-53
2021/06/19 08:57:38;;;;;;;3.95;2.10;;;32.50;57.40;;;;;;5125712;27;20054;-49
2021/06/19 09:00:09;;;;;;;3.75;1.92;;;32.50;56.40;;;;;;5122724;27;20071;-49
2021/06/19 09:02:37;;;;;;;5.70;2.08;;;32.40;56.20;;;;;;5127666;27;20074;-49
2021/06/19 09:05:12;;;;;;;4.15;2.42;;;32.50;55.70;;;;;;5120185;27;20131;-50
2021/06/19 09:07:47;;;;;;;6.88;2.08;;;32.40;54.70;;;;;;5126687;27;20106;-53
2021/06/19 09:10:37;;;;;;;6.10;3.05;;;32.50;55.20;;;;;;5117373;27;20050;-49
2021/06/19 09:13:09;;;;;;;3.33;2.17;;;32.60;55.70;;;;;;5100835;27;20063;-49
2021/06/19 09:15:49;;;;;;;5.15;2.20;;;32.60;55.70;;;;;;5108852;27;20089;-50
2021/06/19 09:18:26;;;;;;;8.70;2.25;;;32.70;56.40;;;;;;5116120;27;20440;-50
2021/06/19 09:21:01;;;;;;;5.93;2.40;;;32.50;56.40;;;;;;5098826;27;20047;-52
2021/06/19 09:23:36;;;;;;;4.75;2.28;;;32.50;57.80;;;;;;5120844;27;20350;-53
2021/06/19 09:26:06;;;;;;;4.35;2.53;;;32.50;57.30;;;;;;5122121;27;20066;-51
2021/06/19 09:28:57;;;;;;;4.63;2.40;;;32.50;57.40;;;;;;5103043;27;20051;-49
2021/06/19 09:31:46;;;;;;;4.00;2.50;;;32.60;57.30;;;;;;5120653;27;20086;-52
2021/06/19 09:34:21;;;;;;;3.17;2.10;;;32.60;57.20;;;;;;5124960;27;20059;-50
2021/06/19 09:36:49;;;;;;;;;;;32.60;58.00;;;;;;5102900;28;20438;-50
2021/06/19 09:39:25;;;;;;;4.10;2.53;;;32.50;58.90;;;;;;5129566;27;20318;-52
2021/06/19 09:41:59;;;;;;;4.25;2.00;;;32.40;57.00;;;;;;5122204;27;20047;-49
2021/06/19 09:44:46;;;;;;;4.88;2.30;;;32.30;57.00;;;;;;5128111;27;20138;-50
2021/06/19 09:47:20;;;;;;;4.13;2.03;;;32.30;56.80;;;;;;5115023;27;20039;-49
2021/06/19 09:49:50;;;;;;;3.25;2.20;;;32.20;56.20;;;;;;5113711;27;20049;-49
2021/06/19 09:52:28;;;;;;;5.35;2.38;;;32.20;55.70;;;;;;5120736;27;20047;-49
2021/06/19 09:54:58;;;;;;;4.95;2.65;;;32.30;54.90;;;;;;5105131;27;20039;-53
2021/06/19 09:57:42;;;;;;;3.50;2.33;;;32.30;55.10;;;;;;5120455;27;20502;-51
2021/06/19 10:00:13;;;;;;;4.38;2.15;;;32.40;55.40;;;;;;5124414;27;20469;-52
2021/06/19 10:02:41;;;;;;;4.18;2.13;;;32.50;55.20;;;;;;5118820;27;20085;-49
2021/06/19 10:05:10;;;;;;;3.00;2.13;;;32.50;55.60;;;;;;5114120;27;20485;-50
2021/06/19 10:07:38;;;;;;;3.83;2.20;;;32.50;55.20;;;;;;5120065;27;20052;-49
2021/06/19 10:10:10;;;;;;;4.88;2.15;;;32.40;54.70;;;;;;5126611;27;20417;-54
2021/06/19 10:12:39;;;;;;;4.20;1.80;;;32.30;55.00;;;;;;5102611;27;20032;-50
2021/06/19 10:15:11;;;;;;;4.40;1.80;;;32.30;54.90;;;;;;5114911;27;20047;-50
2021/06/19 10:17:41;;;;;;;3.55;2.30;;;32.30;55.00;;;;;;5090599;27;20056;-52
2021/06/19 10:20:15;;;;;;;4.55;2.00;;;32.40;55.30;;;;;;5121344;27;20492;-50
2021/06/19 10:22:44;;;;;;;4.27;2.40;;;32.50;55.60;;;;;;5102503;28;20063;-51
2021/06/19 10:25:20;;;;;;;5.95;2.40;;;32.50;55.60;;;;;;5132395;27;20051;-52
2021/06/19 10:27:50;;;;;;;4.18;2.10;;;32.60;54.90;;;;;;5122983;27;20040;-52
2021/06/19 10:30:23;;;;;;;5.22;2.45;;;32.60;53.50;;;;;;5108418;28;20507;-50
2021/06/19 10:33:27;;;;;;;6.68;2.92;;;32.60;54.20;;;;;;5098240;28;20070;-51
2021/06/19 10:36:01;;;;;;;3.95;2.00;;;32.60;54.50;;;;;;5117229;27;20086;-54
2021/06/19 10:38:30;;;;;;;2.92;1.83;;;32.60;54.90;;;;;;5118104;27;20048;-49
2021/06/19 10:41:00;;;;;;;4.07;2.08;;;32.70;55.00;;;;;;5123796;27;20130;-49
2021/06/19 10:43:29;;;;;;;2.08;1.70;;;32.70;55.30;;;;;;5099881;28;20044;-50
2021/06/19 10:46:27;;;;;;;3.53;2.20;;;32.70;55.40;;;;;;5095754;27;20374;-53
2021/06/19 10:48:55;;;;;;;3.28;2.10;;;32.70;55.20;;;;;;5125084;27;20091;-51
2021/06/19 10:51:26;;;;;;;3.00;2.10;;;32.70;54.90;;;;;;5109271;27;20051;-51
2021/06/19 10:54:07;;;;;;;3.65;2.00;;;32.60;54.10;;;;;;5123912;27;20043;-50
2021/06/19 10:56:58;;;;;;;4.35;2.42;;;32.50;53.40;;;;;;5098352;28;20044;-49
2021/06/19 10:59:31;;;;;;;2.83;1.80;;;32.40;53.70;;;;;;5093328;28;20048;-53
2021/06/19 11:02:02;;;;;;;3.13;2.13;;;32.40;53.60;;;;;;5118830;27;20059;-49
2021/06/19 11:04:36;;;;;;;3.22;2.15;;;32.50;54.50;;;;;;5115510;27;20067;-52
2021/06/19 11:07:05;;;;;;;4.40;2.05;;;32.40;54.00;;;;;;5102614;28;20047;-49
2021/06/19 11:09:36;;;;;;;3.33;2.08;;;32.50;54.10;;;;;;5112774;28;20047;-51
2021/06/19 11:12:06;;;;;;;4.57;2.00;;;32.50;54.80;;;;;;5106280;28;20050;-50
2021/06/19 11:14:40;;;;;;;3.83;2.05;;;32.60;54.90;;;;;;5113522;28;20431;-49
2021/06/19 11:17:15;;;;;;;3.40;2.28;;;32.50;54.90;;;;;;5124998;27;20071;-53
2021/06/19 11:19:59;;;;;;;3.25;2.53;;;32.60;54.90;;;;;;5114058;27;20047;-50
2021/06/19 11:22:43;;;;;;;4.25;2.33;;;32.50;55.30;;;;;;5121129;27;20066;-49
2021/06/19 11:25:37;;;;;;;3.33;1.80;;;32.50;55.80;;;;;;5136035;27;20430;-50
2021/06/19 11:28:12;;;;;;;2.50;1.95;;;32.30;56.30;;;;;;5082813;28;20431;-53
2021/06/19 11:30:43;;;;;;;3.38;2.20;;;32.20;56.40;;;;;;5117313;27;20095;-51
2021/06/19 11:33:20;;;;;;;2.78;2.17;;;32.20;56.30;;;;;;5122174;27;20060;-52
2021/06/19 11:36:01;;;;;;;3.55;2.10;;;32.20;56.50;;;;;;5117484;27;20126;-50
2021/06/19 11:38:45;;;;;;;3.58;2.22;;;32.20;56.10;;;;;;5127941;27;20514;-51
2021/06/19 11:41:18;;;;;;;4.20;2.10;;;32.20;56.30;;;;;;5132936;27;20054;-50
2021/06/19 11:43:47;;;;;;;5.18;2.72;;;32.30;55.90;;;;;;5090994;28;20112;-50
2021/06/19 11:46:18;;;;;;;5.18;2.40;;;32.30;56.30;;;;;;5121186;27;20051;-49
2021/06/19 11:48:59;;;;;;;3.97;1.90;;;32.30;56.10;;;;;;5091137;28;20043;-50
2021/06/19 11:51:31;;;;;;;3.63;2.30;;;32.40;55.50;;;;;;5121154;27;20047;-52
2021/06/19 11:54:16;;;;;;;3.42;2.50;;;32.40;55.80;;;;;;5128582;27;20052;-49
2021/06/19 11:56:44;;;;;;;3.00;2.25;;;32.30;55.90;;;;;;5125968;27;20089;-50
2021/06/19 11:59:17;;;;;;;3.20;1.83;;;32.40;55.70;;;;;;5117745;27;20408;-51
2021/06/19 12:01:48;;;;;;;4.85;1.80;;;32.30;55.40;;;;;;5126100;27;20561;-52
2021/06/19 12:04:21;;;;;;;3.60;2.08;;;32.30;55.00;;;;;;5065338;28;20161;-51
2021/06/19 12:06:52;;;;;;;4.65;2.75;;;32.30;55.20;;;;;;5123011;27;20048;-50
2021/06/19 12:09:40;;;;;;;5.72;2.47;;;32.20;55.50;;;;;;5116457;27;20126;-49
2021/06/19 12:12:15;;;;;;;3.05;2.00;;;32.20;56.00;;;;;;5102752;28;20047;-50
2021/06/19 12:14:42;;;;;;;5.25;2.30;;;32.10;55.50;;;;;;5136900;27;20050;-50
2021/06/19 12:17:12;;;;;;;4.60;2.28;;;32.10;56.10;;;;;;5124484;27;20054;-49
2021/06/19 12:19:42;;;;;;;3.63;2.03;;;32.20;56.40;;;;;;5117928;27;20050;-49
2021/06/19 12:22:17;;;;;;;3.20;2.55;;;32.10;55.90;;;;;;5129341;27;20524;-49
2021/06/19 12:24:49;;;;;;;5.13;2.33;;;32.10;56.00;;;;;;5133142;27;20043;-48
2021/06/19 12:27:23;;;;;;;3.13;2.28;;;32.20;56.30;;;;;;5125152;27;20058;-52
2021/06/19 12:29:54;;;;;;;5.20;2.38;;;32.20;56.30;;;;;;5095988;28;20425;-50
2021/06/19 12:32:35;;;;;;;3.35;2.15;;;32.20;56.20;;;;;;5103668;27;20063;-49
2021/06/19 12:35:06;;;;;;;5.90;2.20;;;32.10;55.60;;;;;;5099177;28;20043;-51
2021/06/19 12:37:36;;;;;;;4.65;2.00;;;32.20;55.30;;;;;;5122539;27;20051;-50
2021/06/19 12:40:13;;;;;;;3.20;2.22;;;32.10;55.60;;;;;;5101159;28;20059;-48
2021/06/19 12:42:47;;;;;;;5.07;2.85;;;32.10;55.60;;;;;;5122015;27;20101;-49
2021/06/19 12:45:17;;;;;;;3.13;2.10;;;32.20;54.80;;;;;;5122048;27;20093;-51
2021/06/19 12:47:47;;;;;;;3.35;2.05;;;32.10;54.60;;;;;;5127948;27;20125;-50
2021/06/19 12:50:37;;;;;;;3.80;2.75;;;32.10;54.80;;;;;;5124490;27;20047;-49
2021/06/19 12:53:13;;;;;;;4.35;2.10;;;32.00;53.60;;;;;;5121277;27;20044;-48
2021/06/19 12:55:58;;;;;;;3.13;2.20;;;32.00;53.70;;;;;;5122699;27;20042;-50
2021/06/19 12:58:39;;;;;;;3.42;1.73;;;32.00;53.60;;;;;;5122609;27;20060;-52
2021/06/19 13:01:24;;;;;;;3.67;2.05;;;32.10;53.60;;;;;;5115398;27;20063;-51
2021/06/19 13:03:57;;;;;;;3.17;2.05;;;32.10;53.30;;;;;;5117031;27;20501;-49
2021/06/19 13:06:45;;;;;;;3.90;2.15;;;32.20;53.50;;;;;;5122832;27;20085;-51